Arvonia, Virginia
Current Conditions -  °F | °C
As of 2:15 PM on Saturday 20 Dec 2014 (Local Time) from KFVX Reporting Station
Overcast Overcast  
Wind Chill:   Ceiling: 10000
Heat Index:   Visibility: 10mi
Dew Point: -4°   Wind: 0mph
Humidity: 50%   Direction: NA
Pressure: 30.23"   Gusts: NA
Location:  37.68°N, 78.34°W
Report Text: KFVX 201915Z AUTO 00000KT 10SM OVC100 06/M04 A3023 RMK AO2 T00561040
Loading
Personal Weather Stations






























Interactive Weather Map New forecast layout! Learn more

10-Day Weather Forecast

Advertisements
Track Severe Weather on mobile